sensor_id;sensor_type;location;lat;lon;timestamp;pressure;altitude;pressure_sealevel;temperature;humidity
70589;BME280;58152;49.202;18.744;2022-12-24T00:00:32;96426.59;;;2.98;82.62
70589;BME280;58152;49.202;18.744;2022-12-24T00:02:58;96429.78;;;3.06;82.93
70589;BME280;58152;49.202;18.744;2022-12-24T00:05:26;96420.44;;;3.02;82.79
70589;BME280;58152;49.202;18.744;2022-12-24T00:07:51;96426.56;;;3.00;82.20
70589;BME280;58152;49.202;18.744;2022-12-24T00:10:17;96426.50;;;3.01;82.31
70589;BME280;58152;49.202;18.744;2022-12-24T00:12:45;96419.69;;;2.97;81.99
70589;BME280;58152;49.202;18.744;2022-12-24T00:15:11;96417.84;;;3.02;82.34
70589;BME280;58152;49.202;18.744;2022-12-24T00:17:36;96416.28;;;2.97;82.53
70589;BME280;58152;49.202;18.744;2022-12-24T00:20:02;96417.88;;;3.01;82.62
70589;BME280;58152;49.202;18.744;2022-12-24T00:22:28;96419.47;;;3.05;82.44
70589;BME280;58152;49.202;18.744;2022-12-24T00:24:57;96420.94;;;3.14;82.15
70589;BME280;58152;49.202;18.744;2022-12-24T00:27:23;96419.25;;;3.13;82.20
70589;BME280;58152;49.202;18.744;2022-12-24T00:29:49;96421.88;;;3.11;81.85
70589;BME280;58152;49.202;18.744;2022-12-24T00:32:14;96424.53;;;3.10;81.78
70589;BME280;58152;49.202;18.744;2022-12-24T00:34:40;96422.91;;;3.05;82.34
70589;BME280;58152;49.202;18.744;2022-12-24T00:37:06;96431.50;;;3.08;81.99
70589;BME280;58152;49.202;18.744;2022-12-24T00:39:31;96417.84;;;3.02;82.05
70589;BME280;58152;49.202;18.744;2022-12-24T00:41:57;96411.91;;;2.99;81.97
70589;BME280;58152;49.202;18.744;2022-12-24T00:44:22;96435.22;;;2.99;82.17
70589;BME280;58152;49.202;18.744;2022-12-24T00:46:48;96424.88;;;2.99;82.25
70589;BME280;58152;49.202;18.744;2022-12-24T00:49:13;96430.94;;;2.98;81.93
70589;BME280;58152;49.202;18.744;2022-12-24T00:51:39;96429.28;;;2.95;82.25
70589;BME280;58152;49.202;18.744;2022-12-24T00:54:05;96443.94;;;2.96;82.50
70589;BME280;58152;49.202;18.744;2022-12-24T00:56:31;96455.97;;;2.97;82.43
70589;BME280;58152;49.202;18.744;2022-12-24T00:58:57;96456.84;;;2.98;82.26
70589;BME280;58152;49.202;18.744;2022-12-24T01:01:23;96447.47;;;2.94;82.19
70589;BME280;58152;49.202;18.744;2022-12-24T01:03:50;96442.28;;;2.94;82.37
70589;BME280;58152;49.202;18.744;2022-12-24T01:06:21;96442.88;;;3.02;82.89
70589;BME280;58152;49.202;18.744;2022-12-24T01:08:50;96439.31;;;3.06;82.72
70589;BME280;58152;49.202;18.744;2022-12-24T01:11:16;96444.47;;;3.08;82.49
70589;BME280;58152;49.202;18.744;2022-12-24T01:13:41;96449.69;;;3.06;82.33
70589;BME280;58152;49.202;18.744;2022-12-24T01:16:17;96459.34;;;3.01;82.27
70589;BME280;58152;49.202;18.744;2022-12-24T01:18:43;96452.53;;;2.97;82.38
70589;BME280;58152;49.202;18.744;2022-12-24T01:21:09;96458.63;;;2.96;82.38
70589;BME280;58152;49.202;18.744;2022-12-24T01:23:34;96452.69;;;2.92;82.33
70589;BME280;58152;49.202;18.744;2022-12-24T01:26:01;96466.47;;;2.94;82.37
70589;BME280;58152;49.202;18.744;2022-12-24T01:28:27;96458.81;;;2.90;82.17
70589;BME280;58152;49.202;18.744;2022-12-24T01:30:52;96473.53;;;2.89;82.59
70589;BME280;58152;49.202;18.744;2022-12-24T01:33:18;96472.63;;;2.90;82.48
70589;BME280;58152;49.202;18.744;2022-12-24T01:35:44;96476.13;;;2.88;82.59
70589;BME280;58152;49.202;18.744;2022-12-24T01:38:10;96493.28;;;2.92;82.67
70589;BME280;58152;49.202;18.744;2022-12-24T01:40:37;96468.41;;;2.86;82.72
70589;BME280;58152;49.202;18.744;2022-12-24T01:43:22;96489.16;;;2.86;82.60
70589;BME280;58152;49.202;18.744;2022-12-24T01:51:05;96511.44;;;2.92;82.89
70589;BME280;58152;49.202;18.744;2022-12-24T01:53:35;96497.69;;;2.90;82.70
70589;BME280;58152;49.202;18.744;2022-12-24T01:56:03;96483.88;;;2.89;82.58
70589;BME280;58152;49.202;18.744;2022-12-24T01:58:31;96482.16;;;2.88;82.99
70589;BME280;58152;49.202;18.744;2022-12-24T02:00:58;96461.44;;;2.88;82.76
70589;BME280;58152;49.202;18.744;2022-12-24T02:03:24;96452.94;;;2.85;82.77
70589;BME280;58152;49.202;18.744;2022-12-24T02:05:54;96465.06;;;2.83;82.74
70589;BME280;58152;49.202;18.744;2022-12-24T02:08:22;96473.69;;;2.83;82.52
70589;BME280;58152;49.202;18.744;2022-12-24T02:10:48;96484.03;;;2.83;82.69
70589;BME280;58152;49.202;18.744;2022-12-24T02:13:16;96477.22;;;2.80;82.53
70589;BME280;58152;49.202;18.744;2022-12-24T02:18:38;96469.31;;;2.85;82.49
70589;BME280;58152;49.202;18.744;2022-12-24T02:21:41;96476.28;;;2.83;82.52
70589;BME280;58152;49.202;18.744;2022-12-24T02:35:19;96495.16;;;2.87;82.59
70589;BME280;58152;49.202;18.744;2022-12-24T02:37:54;96498.59;;;2.87;82.80
70589;BME280;58152;49.202;18.744;2022-12-24T02:40:28;96502.03;;;2.88;82.67
70589;BME280;58152;49.202;18.744;2022-12-24T02:43:00;96503.00;;;2.85;82.77
70589;BME280;58152;49.202;18.744;2022-12-24T02:45:30;96510.66;;;2.88;83.15
70589;BME280;58152;49.202;18.744;2022-12-24T02:47:56;96508.13;;;2.87;82.71
70589;BME280;58152;49.202;18.744;2022-12-24T02:50:23;96515.00;;;2.88;82.84
70589;BME280;58152;49.202;18.744;2022-12-24T02:52:49;96522.75;;;2.89;82.86
70589;BME280;58152;49.202;18.744;2022-12-24T02:58:15;96515.72;;;2.93;83.04
70589;BME280;58152;49.202;18.744;2022-12-24T03:09:46;96547.84;;;2.87;82.78
70589;BME280;58152;49.202;18.744;2022-12-24T03:12:17;96541.72;;;2.90;83.11
70589;BME280;58152;49.202;18.744;2022-12-24T03:14:47;96538.19;;;2.92;82.94
70589;BME280;58152;49.202;18.744;2022-12-24T03:17:14;96535.72;;;2.89;83.31
70589;BME280;58152;49.202;18.744;2022-12-24T03:19:39;96533.97;;;2.90;83.09
70589;BME280;58152;49.202;18.744;2022-12-24T03:22:08;96550.28;;;2.92;83.14
70589;BME280;58152;49.202;18.744;2022-12-24T03:24:36;96555.53;;;2.90;83.30
70589;BME280;58152;49.202;18.744;2022-12-24T03:27:03;96556.31;;;2.92;83.02
70589;BME280;58152;49.202;18.744;2022-12-24T03:29:30;96552.00;;;2.93;83.04
70589;BME280;58152;49.202;18.744;2022-12-24T03:31:59;96553.75;;;2.92;83.04
70589;BME280;58152;49.202;18.744;2022-12-24T03:34:25;96554.81;;;2.85;82.77
70589;BME280;58152;49.202;18.744;2022-12-24T03:36:51;96559.03;;;2.88;82.97
70589;BME280;58152;49.202;18.744;2022-12-24T03:39:17;96564.28;;;2.86;82.90
70589;BME280;58152;49.202;18.744;2022-12-24T03:41:42;96567.66;;;2.90;83.12
70589;BME280;58152;49.202;18.744;2022-12-24T03:44:07;96565.06;;;2.90;82.95
70589;BME280;58152;49.202;18.744;2022-12-24T03:46:33;96562.47;;;2.88;83.41
70589;BME280;58152;49.202;18.744;2022-12-24T03:48:58;96559.03;;;2.88;83.27
70589;BME280;58152;49.202;18.744;2022-12-24T03:51:24;96548.69;;;2.88;83.13
70589;BME280;58152;49.202;18.744;2022-12-24T03:53:54;96559.88;;;2.88;82.72
70589;BME280;58152;49.202;18.744;2022-12-24T03:56:21;96543.50;;;2.88;82.80
70589;BME280;58152;49.202;18.744;2022-12-24T03:58:46;96548.59;;;2.91;83.05
70589;BME280;58152;49.202;18.744;2022-12-24T04:01:13;96543.50;;;2.88;83.01
70589;BME280;58152;49.202;18.744;2022-12-24T04:03:38;96544.34;;;2.88;82.77
70589;BME280;58152;49.202;18.744;2022-12-24T04:06:12;96536.56;;;2.90;83.20
70589;BME280;58152;49.202;18.744;2022-12-24T04:08:39;96558.00;;;2.95;83.14
70589;BME280;58152;49.202;18.744;2022-12-24T04:11:06;96557.16;;;2.93;83.07
70589;BME280;58152;49.202;18.744;2022-12-24T04:13:31;96558.91;;;2.94;82.87
70589;BME280;58152;49.202;18.744;2022-12-24T04:15:58;96535.66;;;2.91;83.19
70589;BME280;58152;49.202;18.744;2022-12-24T04:18:24;96543.34;;;2.94;83.34
70589;BME280;58152;49.202;18.744;2022-12-24T04:20:50;96539.94;;;2.92;83.22
70589;BME280;58152;49.202;18.744;2022-12-24T04:23:15;96547.69;;;2.93;83.25
70589;BME280;58152;49.202;18.744;2022-12-24T04:25:41;96540.78;;;2.92;83.07
70589;BME280;58152;49.202;18.744;2022-12-24T04:28:06;96565.72;;;2.96;83.27
70589;BME280;58152;49.202;18.744;2022-12-24T04:30:31;96551.16;;;2.92;83.51
70589;BME280;58152;49.202;18.744;2022-12-24T04:32:57;96555.53;;;2.90;83.36
70589;BME280;58152;49.202;18.744;2022-12-24T04:35:22;96568.38;;;2.95;83.14
70589;BME280;58152;49.202;18.744;2022-12-24T04:37:48;96577.75;;;2.99;83.50
70589;BME280;58152;49.202;18.744;2022-12-24T04:40:13;96569.25;;;2.94;83.61
70589;BME280;58152;49.202;18.744;2022-12-24T04:42:39;96573.50;;;2.96;83.29
70589;BME280;58152;49.202;18.744;2022-12-24T04:45:04;96575.19;;;2.97;83.20
70589;BME280;58152;49.202;18.744;2022-12-24T04:47:30;96574.34;;;2.97;83.65
70589;BME280;58152;49.202;18.744;2022-12-24T04:49:55;96574.34;;;2.97;83.62
70589;BME280;58152;49.202;18.744;2022-12-24T04:52:21;96567.50;;;2.94;83.52
70589;BME280;58152;49.202;18.744;2022-12-24T04:54:46;96564.94;;;2.94;83.56
70589;BME280;58152;49.202;18.744;2022-12-24T04:57:11;96588.13;;;2.99;83.50
70589;BME280;58152;49.202;18.744;2022-12-24T04:59:37;96595.97;;;2.96;83.43
70589;BME280;58152;49.202;18.744;2022-12-24T05:02:02;96583.84;;;2.98;83.48
70589;BME280;58152;49.202;18.744;2022-12-24T05:04:28;96580.38;;;2.97;83.52
70589;BME280;58152;49.202;18.744;2022-12-24T05:06:53;96585.56;;;2.97;83.54
70589;BME280;58152;49.202;18.744;2022-12-24T05:09:18;96594.22;;;2.96;83.30
70589;BME280;58152;49.202;18.744;2022-12-24T05:11:44;96589.94;;;2.95;83.15
70589;BME280;58152;49.202;18.744;2022-12-24T05:14:09;96596.81;;;2.96;83.26
70589;BME280;58152;49.202;18.744;2022-12-24T05:16:35;96604.47;;;3.01;83.57
70589;BME280;58152;49.202;18.744;2022-12-24T05:19:02;96605.28;;;3.03;83.47
70589;BME280;58152;49.202;18.744;2022-12-24T05:21:28;96603.31;;;3.11;83.45
70589;BME280;58152;49.202;18.744;2022-12-24T05:23:53;96608.28;;;3.19;83.38
70589;BME280;58152;49.202;18.744;2022-12-24T05:26:48;96599.75;;;3.15;83.24
70589;BME280;58152;49.202;18.744;2022-12-24T05:29:14;96604.09;;;3.15;83.49
70589;BME280;58152;49.202;18.744;2022-12-24T05:31:40;96597.28;;;3.11;83.14
70589;BME280;58152;49.202;18.744;2022-12-24T05:34:07;96604.19;;;3.12;83.30
70589;BME280;58152;49.202;18.744;2022-12-24T05:36:33;96604.22;;;3.10;83.25
70589;BME280;58152;49.202;18.744;2022-12-24T05:38:58;96609.41;;;3.10;83.05
70589;BME280;58152;49.202;18.744;2022-12-24T05:41:27;96615.41;;;3.12;83.17
70589;BME280;58152;49.202;18.744;2022-12-24T05:43:53;96613.72;;;3.10;83.37
70589;BME280;58152;49.202;18.744;2022-12-24T05:46:21;96613.78;;;3.08;83.19
70589;BME280;58152;49.202;18.744;2022-12-24T05:48:48;96616.31;;;3.10;82.89
70589;BME280;58152;49.202;18.744;2022-12-24T05:51:14;96613.69;;;3.11;83.43
70589;BME280;58152;49.202;18.744;2022-12-24T05:53:42;96623.19;;;3.11;83.22
70589;BME280;58152;49.202;18.744;2022-12-24T05:56:20;96630.06;;;3.13;83.43
70589;BME280;58152;49.202;18.744;2022-12-24T05:58:46;96623.19;;;3.12;83.64
70589;BME280;58152;49.202;18.744;2022-12-24T06:01:12;96630.94;;;3.12;83.43
70589;BME280;58152;49.202;18.744;2022-12-24T06:03:37;96621.50;;;3.10;83.09
70589;BME280;58152;49.202;18.744;2022-12-24T06:06:04;96627.41;;;3.15;83.51
70589;BME280;58152;49.202;18.744;2022-12-24T06:08:31;96631.88;;;3.10;83.12
70589;BME280;58152;49.202;18.744;2022-12-24T06:10:58;96649.00;;;3.15;83.28
70589;BME280;58152;49.202;18.744;2022-12-24T06:13:24;96649.00;;;3.15;83.24
70589;BME280;58152;49.202;18.744;2022-12-24T06:15:53;96651.69;;;3.12;83.44
70589;BME280;58152;49.202;18.744;2022-12-24T06:18:19;96653.44;;;3.12;83.66
70589;BME280;58152;49.202;18.744;2022-12-24T06:20:44;96646.50;;;3.12;83.19
70589;BME280;58152;49.202;18.744;2022-12-24T06:23:10;96661.94;;;3.15;83.57
70589;BME280;58152;49.202;18.744;2022-12-24T06:25:35;96654.22;;;3.14;83.42
70589;BME280;58152;49.202;18.744;2022-12-24T06:28:00;96659.47;;;3.12;83.49
70589;BME280;58152;49.202;18.744;2022-12-24T06:30:26;96663.69;;;3.15;83.53
70589;BME280;58152;49.202;18.744;2022-12-24T06:32:51;96674.06;;;3.16;83.27
70589;BME280;58152;49.202;18.744;2022-12-24T06:35:17;96670.63;;;3.14;83.27
70589;BME280;58152;49.202;18.744;2022-12-24T06:37:42;96676.66;;;3.15;83.46
70589;BME280;58152;49.202;18.744;2022-12-24T06:40:08;96671.59;;;3.12;83.50
70589;BME280;58152;49.202;18.744;2022-12-24T06:42:33;96672.38;;;3.14;83.79
70589;BME280;58152;49.202;18.744;2022-12-24T06:44:59;96675.88;;;3.11;83.54
70589;BME280;58152;49.202;18.744;2022-12-24T06:47:24;96670.69;;;3.13;83.31
70589;BME280;58152;49.202;18.744;2022-12-24T06:49:50;96674.97;;;3.14;83.52
70589;BME280;58152;49.202;18.744;2022-12-24T06:52:15;96681.91;;;3.13;83.57
70589;BME280;58152;49.202;18.744;2022-12-24T06:54:40;96684.44;;;3.15;83.48
70589;BME280;58152;49.202;18.744;2022-12-24T06:57:06;96685.28;;;3.15;83.66
70589;BME280;58152;49.202;18.744;2022-12-24T06:59:31;96678.47;;;3.13;83.54
70589;BME280;58152;49.202;18.744;2022-12-24T07:01:57;96689.63;;;3.15;83.69
70589;BME280;58152;49.202;18.744;2022-12-24T07:04:22;96700.75;;;3.18;83.59
70589;BME280;58152;49.202;18.744;2022-12-24T07:06:48;96707.66;;;3.19;84.19
70589;BME280;58152;49.202;18.744;2022-12-24T07:09:13;96696.44;;;3.19;83.79
70589;BME280;58152;49.202;18.744;2022-12-24T07:11:39;96693.84;;;3.19;84.06
70589;BME280;58152;49.202;18.744;2022-12-24T07:14:04;96689.59;;;3.16;84.13
70589;BME280;58152;49.202;18.744;2022-12-24T07:16:30;96698.09;;;3.21;84.11
70589;BME280;58152;49.202;18.744;2022-12-24T07:18:55;96699.88;;;3.19;83.95
70589;BME280;58152;49.202;18.744;2022-12-24T07:21:21;96698.13;;;3.20;84.29
70589;BME280;58152;49.202;18.744;2022-12-24T07:23:46;96712.72;;;3.24;84.27
70589;BME280;58152;49.202;18.744;2022-12-24T07:26:11;96699.84;;;3.21;84.72
70589;BME280;58152;49.202;18.744;2022-12-24T07:28:37;96708.41;;;3.23;84.41
70589;BME280;58152;49.202;18.744;2022-12-24T07:31:02;96702.44;;;3.21;84.41
70589;BME280;58152;49.202;18.744;2022-12-24T07:33:28;96714.41;;;3.25;84.70
70589;BME280;58152;49.202;18.744;2022-12-24T07:38:24;96726.44;;;3.27;84.90
70589;BME280;58152;49.202;18.744;2022-12-24T07:40:51;96733.38;;;3.27;84.56
70589;BME280;58152;49.202;18.744;2022-12-24T07:43:17;96741.94;;;3.29;84.68
70589;BME280;58152;49.202;18.744;2022-12-24T07:45:42;96744.53;;;3.29;84.88
70589;BME280;58152;49.202;18.744;2022-12-24T07:48:08;96733.38;;;3.27;84.77
70589;BME280;58152;49.202;18.744;2022-12-24T07:50:33;96746.28;;;3.28;84.77
70589;BME280;58152;49.202;18.744;2022-12-24T07:52:58;96742.69;;;3.34;84.35
70589;BME280;58152;49.202;18.744;2022-12-24T07:55:24;96741.09;;;3.30;85.02
70589;BME280;58152;49.202;18.744;2022-12-24T07:57:49;96749.72;;;3.30;84.77
70589;BME280;58152;49.202;18.744;2022-12-24T08:00:15;96754.81;;;3.34;84.90
70589;BME280;58152;49.202;18.744;2022-12-24T08:02:40;96751.34;;;3.35;84.88
70589;BME280;58152;49.202;18.744;2022-12-24T08:05:06;96758.16;;;3.37;85.06
70589;BME280;58152;49.202;18.744;2022-12-24T08:07:32;96752.13;;;3.37;85.05
70589;BME280;58152;49.202;18.744;2022-12-24T08:09:57;96762.44;;;3.40;84.73
70589;BME280;58152;49.202;18.744;2022-12-24T08:12:23;96751.25;;;3.38;85.19
70589;BME280;58152;49.202;18.744;2022-12-24T08:14:48;96769.38;;;3.39;84.66
70589;BME280;58152;49.202;18.744;2022-12-24T08:17:14;96760.75;;;3.37;84.77
70589;BME280;58152;49.202;18.744;2022-12-24T08:19:39;96769.38;;;3.39;84.89
70589;BME280;58152;49.202;18.744;2022-12-24T08:22:04;96783.06;;;3.44;85.13
70589;BME280;58152;49.202;18.744;2022-12-24T08:24:30;96774.47;;;3.42;85.14
70589;BME280;58152;49.202;18.744;2022-12-24T08:26:55;96777.88;;;3.44;85.08
70589;BME280;58152;49.202;18.744;2022-12-24T08:29:21;96782.13;;;3.47;85.20
70589;BME280;58152;49.202;18.744;2022-12-24T08:31:46;96777.66;;;3.52;85.46
70589;BME280;58152;49.202;18.744;2022-12-24T08:34:15;96776.78;;;3.53;85.10
70589;BME280;58152;49.202;18.744;2022-12-24T08:36:40;96780.19;;;3.55;85.19
70589;BME280;58152;49.202;18.744;2022-12-24T08:39:05;96788.75;;;3.57;85.03
70589;BME280;58152;49.202;18.744;2022-12-24T08:41:33;96800.00;;;3.58;85.43
70589;BME280;58152;49.202;18.744;2022-12-24T08:43:59;96790.44;;;3.60;84.85
70589;BME280;58152;49.202;18.744;2022-12-24T08:46:24;96801.66;;;3.60;85.48
70589;BME280;58152;49.202;18.744;2022-12-24T08:48:50;96799.91;;;3.61;85.48
70589;BME280;58152;49.202;18.744;2022-12-24T08:51:15;96806.78;;;3.63;85.76
70589;BME280;58152;49.202;18.744;2022-12-24T08:53:43;96812.69;;;3.68;85.54
70589;BME280;58152;49.202;18.744;2022-12-24T08:56:09;96800.63;;;3.67;85.82
70589;BME280;58152;49.202;18.744;2022-12-24T08:58:36;96791.09;;;3.68;85.98
70589;BME280;58152;49.202;18.744;2022-12-24T09:01:12;96793.50;;;3.74;85.81
70589;BME280;58152;49.202;18.744;2022-12-24T09:03:38;96803.75;;;3.78;86.04
70589;BME280;58152;49.202;18.744;2022-12-24T09:06:04;96806.28;;;3.80;86.39
70589;BME280;58152;49.202;18.744;2022-12-24T09:08:31;96795.13;;;3.78;85.95
70589;BME280;58152;49.202;18.744;2022-12-24T09:11:11;96800.25;;;3.79;85.83
70589;BME280;58152;49.202;18.744;2022-12-24T09:13:38;96811.53;;;3.78;85.78
70589;BME280;58152;49.202;18.744;2022-12-24T09:16:04;96820.09;;;3.82;85.94
70589;BME280;58152;49.202;18.744;2022-12-24T09:18:30;96823.41;;;3.87;86.04
70589;BME280;58152;49.202;18.744;2022-12-24T09:21:11;96819.97;;;3.87;85.96
70589;BME280;58152;49.202;18.744;2022-12-24T09:23:39;96823.41;;;3.87;85.92
70589;BME280;58152;49.202;18.744;2022-12-24T09:26:09;96830.16;;;3.94;85.87
70589;BME280;58152;49.202;18.744;2022-12-24T09:28:36;96822.38;;;3.94;86.32
70589;BME280;58152;49.202;18.744;2022-12-24T09:31:04;96836.09;;;3.98;86.13
70589;BME280;58152;49.202;18.744;2022-12-24T09:33:35;96825.72;;;3.98;86.16
70589;BME280;58152;49.202;18.744;2022-12-24T09:36:02;96823.94;;;4.00;86.36
70589;BME280;58152;49.202;18.744;2022-12-24T09:38:27;96826.56;;;3.98;86.61
70589;BME280;58152;49.202;18.744;2022-12-24T09:40:54;96831.59;;;4.04;86.57
70589;BME280;58152;49.202;18.744;2022-12-24T09:43:25;96827.19;;;4.06;86.51
70589;BME280;58152;49.202;18.744;2022-12-24T09:46:22;96830.53;;;4.12;86.12
70589;BME280;58152;49.202;18.744;2022-12-24T09:48:55;96828.81;;;4.11;85.95
70589;BME280;58152;49.202;18.744;2022-12-24T09:51:41;96835.56;;;4.18;86.46
70589;BME280;58152;49.202;18.744;2022-12-24T09:54:16;96846.75;;;4.20;86.54
70589;BME280;58152;49.202;18.744;2022-12-24T09:56:45;96846.78;;;4.18;86.83
70589;BME280;58152;49.202;18.744;2022-12-24T09:59:22;96848.50;;;4.19;86.51
70589;BME280;58152;49.202;18.744;2022-12-24T10:01:53;96844.19;;;4.18;86.62
70589;BME280;58152;49.202;18.744;2022-12-24T10:04:21;96848.34;;;4.24;86.89
70589;BME280;58152;49.202;18.744;2022-12-24T10:07:09;96849.97;;;4.28;86.73
70589;BME280;58152;49.202;18.744;2022-12-24T10:10:05;96849.06;;;4.29;87.05
70589;BME280;58152;49.202;18.744;2022-12-24T10:12:48;96845.63;;;4.28;87.17
70589;BME280;58152;49.202;18.744;2022-12-24T10:18:03;96859.28;;;4.35;86.83
70589;BME280;58152;49.202;18.744;2022-12-24T10:23:29;96863.50;;;4.39;87.34
70589;BME280;58152;49.202;18.744;2022-12-24T10:29:16;96857.06;;;4.52;87.68
70589;BME280;58152;49.202;18.744;2022-12-24T10:34:39;96864.63;;;4.60;87.47
70589;BME280;58152;49.202;18.744;2022-12-24T10:37:06;96873.28;;;4.61;87.33
70589;BME280;58152;49.202;18.744;2022-12-24T10:39:34;96878.34;;;4.65;87.28
70589;BME280;58152;49.202;18.744;2022-12-24T10:42:00;96878.34;;;4.65;86.80
70589;BME280;58152;49.202;18.744;2022-12-24T10:44:28;96886.91;;;4.69;87.26
70589;BME280;58152;49.202;18.744;2022-12-24T10:47:04;96876.59;;;4.66;86.85
70589;BME280;58152;49.202;18.744;2022-12-24T10:49:38;96876.66;;;4.64;87.24
70589;BME280;58152;49.202;18.744;2022-12-24T10:52:11;96885.28;;;4.65;87.11
70589;BME280;58152;49.202;18.744;2022-12-24T10:57:29;96898.91;;;4.73;87.22
70589;BME280;58152;49.202;18.744;2022-12-24T10:59:55;96901.47;;;4.74;87.49
70589;BME280;58152;49.202;18.744;2022-12-24T11:04:50;96896.13;;;4.79;86.99
70589;BME280;58152;49.202;18.744;2022-12-24T11:07:20;96888.38;;;4.77;86.88
70589;BME280;58152;49.202;18.744;2022-12-24T11:10:01;96901.25;;;4.82;87.08
70589;BME280;58152;49.202;18.744;2022-12-24T11:12:30;96912.44;;;4.84;87.37
70589;BME280;58152;49.202;18.744;2022-12-24T11:17:58;96918.06;;;4.98;87.90
70589;BME280;58152;49.202;18.744;2022-12-24T11:20:30;96911.75;;;5.07;87.85
70589;BME280;58152;49.202;18.744;2022-12-24T11:22:57;96920.44;;;5.06;87.47
70589;BME280;58152;49.202;18.744;2022-12-24T11:25:26;96932.47;;;5.08;87.52
70589;BME280;58152;49.202;18.744;2022-12-24T11:27:54;96930.94;;;5.03;86.89
70589;BME280;58152;49.202;18.744;2022-12-24T11:30:29;96935.34;;;5.01;87.29
70589;BME280;58152;49.202;18.744;2022-12-24T11:35:26;96946.66;;;4.98;87.22
70589;BME280;58152;49.202;18.744;2022-12-24T11:40:35;96940.63;;;4.98;87.16
70589;BME280;58152;49.202;18.744;2022-12-24T11:43:03;96950.16;;;4.97;87.60
70589;BME280;58152;49.202;18.744;2022-12-24T11:45:31;96958.75;;;4.99;87.30
70589;BME280;58152;49.202;18.744;2022-12-24T11:47:57;96956.16;;;4.99;87.26
70589;BME280;58152;49.202;18.744;2022-12-24T11:53:01;96965.56;;;5.05;87.51
70589;BME280;58152;49.202;18.744;2022-12-24T11:55:47;96965.44;;;5.08;87.38
70589;BME280;58152;49.202;18.744;2022-12-24T11:58:42;96966.22;;;5.12;87.30
70589;BME280;58152;49.202;18.744;2022-12-24T12:03:41;96963.56;;;5.13;87.27
70589;BME280;58152;49.202;18.744;2022-12-24T12:09:06;96965.03;;;5.22;87.67
70589;BME280;58152;49.202;18.744;2022-12-24T12:11:38;96978.53;;;5.34;88.22
70589;BME280;58152;49.202;18.744;2022-12-24T12:14:05;96990.25;;;5.48;88.35
70589;BME280;58152;49.202;18.744;2022-12-24T12:19:45;96997.00;;;5.53;87.37
70589;BME280;58152;49.202;18.744;2022-12-24T12:22:42;96991.88;;;5.52;87.38
70589;BME280;58152;49.202;18.744;2022-12-24T12:25:18;96998.81;;;5.51;87.27
70589;BME280;58152;49.202;18.744;2022-12-24T12:27:47;97008.38;;;5.51;86.98
70589;BME280;58152;49.202;18.744;2022-12-24T12:30:18;97004.94;;;5.50;86.96
70589;BME280;58152;49.202;18.744;2022-12-24T12:33:11;97016.22;;;5.49;87.05
70589;BME280;58152;49.202;18.744;2022-12-24T12:35:42;97022.34;;;5.48;87.10
70589;BME280;58152;49.202;18.744;2022-12-24T12:38:11;97024.94;;;5.48;86.75
70589;BME280;58152;49.202;18.744;2022-12-24T12:52:01;97041.81;;;5.63;85.77
70589;BME280;58152;49.202;18.744;2022-12-24T12:54:57;97040.00;;;5.67;85.11
70589;BME280;58152;49.202;18.744;2022-12-24T12:57:32;97047.72;;;5.70;85.28
70589;BME280;58152;49.202;18.744;2022-12-24T13:00:09;97046.72;;;5.74;84.76
70589;BME280;58152;49.202;18.744;2022-12-24T13:08:20;97067.78;;;5.94;84.08
70589;BME280;58152;49.202;18.744;2022-12-24T13:11:04;97054.47;;;6.05;83.93
70589;BME280;58152;49.202;18.744;2022-12-24T13:21:22;97078.69;;;6.07;82.79
70589;BME280;58152;49.202;18.744;2022-12-24T13:23:49;97061.38;;;6.06;82.12
70589;BME280;58152;49.202;18.744;2022-12-24T13:26:16;97077.75;;;6.09;82.43
70589;BME280;58152;49.202;18.744;2022-12-24T13:28:42;97086.41;;;6.10;82.23
70589;BME280;58152;49.202;18.744;2022-12-24T13:36:08;97084.69;;;6.09;82.12
70589;BME280;58152;49.202;18.744;2022-12-24T13:46:54;97092.47;;;6.10;81.57
70589;BME280;58152;49.202;18.744;2022-12-24T13:49:29;97091.56;;;6.11;81.97
70589;BME280;58152;49.202;18.744;2022-12-24T13:52:06;97105.28;;;6.17;81.68
70589;BME280;58152;49.202;18.744;2022-12-24T13:54:32;97107.91;;;6.17;81.81
70589;BME280;58152;49.202;18.744;2022-12-24T13:56:58;97101.97;;;6.11;82.23
70589;BME280;58152;49.202;18.744;2022-12-24T13:59:33;97114.88;;;6.16;82.19
70589;BME280;58152;49.202;18.744;2022-12-24T14:02:03;97115.78;;;6.14;82.78
70589;BME280;58152;49.202;18.744;2022-12-24T14:04:33;97119.31;;;6.13;82.53
70589;BME280;58152;49.202;18.744;2022-12-24T14:07:03;97127.97;;;6.13;82.76
70589;BME280;58152;49.202;18.744;2022-12-24T14:09:34;97129.63;;;6.16;83.04
70589;BME280;58152;49.202;18.744;2022-12-24T14:14:30;97134.94;;;6.13;83.12
70589;BME280;58152;49.202;18.744;2022-12-24T14:19:55;97145.47;;;6.09;83.59
70589;BME280;58152;49.202;18.744;2022-12-24T14:25:17;97141.19;;;6.07;83.51
70589;BME280;58152;49.202;18.744;2022-12-24T14:27:48;97148.22;;;6.05;83.85
70589;BME280;58152;49.202;18.744;2022-12-24T14:32:45;97148.34;;;6.00;84.00
70589;BME280;58152;49.202;18.744;2022-12-24T14:35:24;97147.41;;;6.03;84.39
70589;BME280;58152;49.202;18.744;2022-12-24T14:40:28;97164.72;;;6.04;84.29
70589;BME280;58152;49.202;18.744;2022-12-24T14:43:04;97156.16;;;6.00;83.70
70589;BME280;58152;49.202;18.744;2022-12-24T14:45:47;97162.25;;;5.99;84.01
70589;BME280;58152;49.202;18.744;2022-12-24T14:48:36;97168.31;;;6.00;84.12
70589;BME280;58152;49.202;18.744;2022-12-24T14:56:32;97180.69;;;5.93;83.96
70589;BME280;58152;49.202;18.744;2022-12-24T14:58:57;97183.22;;;5.95;83.90
70589;BME280;58152;49.202;18.744;2022-12-24T15:01:30;97192.00;;;5.92;83.84
70589;BME280;58152;49.202;18.744;2022-12-24T15:04:13;97182.47;;;5.90;84.09
70589;BME280;58152;49.202;18.744;2022-12-24T15:06:46;97190.25;;;5.93;84.05
70589;BME280;58152;49.202;18.744;2022-12-24T15:09:28;97199.81;;;5.92;84.04
70589;BME280;58152;49.202;18.744;2022-12-24T15:11:57;97195.44;;;5.93;83.97
70589;BME280;58152;49.202;18.744;2022-12-24T15:14:25;97195.38;;;5.96;84.41